createdAt,value
2019-04-16T00:00:12.206Z,99927.91
2019-04-16T00:02:55.157Z,99924.45
2019-04-16T00:05:48.503Z,99924.80
2019-04-16T00:08:28.203Z,99919.22
2019-04-16T00:11:05.960Z,99922.09
2019-04-16T00:14:03.402Z,99915.24
2019-04-16T00:16:37.823Z,99914.83
2019-04-16T00:19:09.508Z,99914.42
2019-04-16T00:22:05.051Z,99907.23
2019-04-16T00:24:39.551Z,99906.78
2019-04-16T00:27:11.183Z,99896.23
2019-04-16T00:29:43.500Z,99898.77
2019-04-16T00:32:31.167Z,99897.13
2019-04-16T00:35:04.069Z,99891.14
2019-04-16T00:37:34.555Z,99890.80
2019-04-16T00:40:07.130Z,99896.34
2019-04-16T00:42:39.614Z,99896.77
2019-04-16T00:45:12.638Z,99895.02
2019-04-16T00:47:48.048Z,99893.70
2019-04-16T00:50:18.655Z,99892.02
2019-04-16T00:52:52.429Z,99891.56
2019-04-16T00:55:23.236Z,99894.89
2019-04-16T00:57:54.561Z,99889.82
2019-04-16T01:00:30.613Z,99894.02
2019-04-16T01:02:59.733Z,99890.55
2019-04-16T01:05:35.055Z,99888.48
2019-04-16T01:08:04.911Z,99890.44
2019-04-16T01:10:35.747Z,99896.23
2019-04-16T01:13:07.596Z,99893.16
2019-04-16T01:15:42.733Z,99890.95
2019-04-16T01:18:15.646Z,99889.13
2019-04-16T01:20:48.706Z,99886.50
2019-04-16T01:23:20.743Z,99882.53
2019-04-16T01:25:55.586Z,99878.55
2019-04-16T01:28:31.981Z,99877.21
2019-04-16T01:31:22.071Z,99877.52
2019-04-16T01:34:00.782Z,99878.34
2019-04-16T01:36:45.709Z,99878.71
2019-04-16T01:39:20.011Z,99872.25
2019-04-16T01:41:53.499Z,99869.15
2019-04-16T01:44:28.747Z,99866.41
2019-04-16T01:46:58.114Z,99864.20
2019-04-16T01:49:29.896Z,99860.72
2019-04-16T01:52:00.905Z,99850.54
2019-04-16T01:54:32.769Z,99859.36
2019-04-16T01:57:05.973Z,99853.12
2019-04-16T01:59:36.893Z,99855.23
2019-04-16T02:02:07.950Z,99853.53
2019-04-16T02:04:38.863Z,99856.52
2019-04-16T02:07:12.015Z,99866.06
2019-04-16T02:09:42.977Z,99866.65
2019-04-16T02:12:15.009Z,99870.90
2019-04-16T02:14:50.357Z,99870.86
2019-04-16T02:17:26.724Z,99869.05
2019-04-16T02:19:54.046Z,99870.73
2019-04-16T02:22:27.062Z,99858.77
2019-04-16T02:24:58.039Z,99858.77
2019-04-16T02:27:31.136Z,99863.80
2019-04-16T02:30:04.719Z,99861.13
2019-04-16T02:32:35.067Z,99860.17
2019-04-16T02:35:08.037Z,99856.87
2019-04-16T02:37:41.431Z,99856.87
2019-04-16T02:40:18.491Z,99853.89
2019-04-16T02:42:47.145Z,99854.70
2019-04-16T02:45:23.038Z,99850.39
2019-04-16T02:47:52.202Z,99861.58
2019-04-16T02:50:34.435Z,99861.58
2019-04-16T02:53:37.970Z,99865.66
2019-04-16T02:56:31.891Z,99865.50
2019-04-16T02:59:11.892Z,99860.95
2019-04-16T03:01:49.372Z,99860.54
2019-04-16T03:04:26.657Z,99858.82
2019-04-16T03:06:57.305Z,99858.82
2019-04-16T03:09:30.461Z,99867.32
2019-04-16T03:12:03.048Z,99864.11
2019-04-16T03:14:36.348Z,99864.11
2019-04-16T03:17:17.789Z,99854.91
2019-04-16T03:19:51.282Z,99854.91
2019-04-16T03:22:20.823Z,99861.75
2019-04-16T03:24:52.349Z,99862.03
2019-04-16T03:27:24.395Z,99854.26
2019-04-16T03:30:02.985Z,99854.16
2019-04-16T03:32:35.337Z,99854.16
2019-04-16T03:35:05.668Z,99851.29
2019-04-16T03:37:36.368Z,99851.29
2019-04-16T03:40:16.590Z,99851.77
2019-04-16T03:42:43.370Z,99852.88
2019-04-16T03:45:15.916Z,99855.38
2019-04-16T03:47:50.851Z,99855.38
2019-04-16T03:50:21.073Z,99856.57
2019-04-16T03:52:53.399Z,99855.59
2019-04-16T03:55:26.261Z,99866.46
2019-04-16T03:57:56.480Z,99866.46
2019-04-16T04:00:28.439Z,99854.55
2019-04-16T04:02:59.556Z,99861.73
2019-04-16T04:05:35.106Z,99860.62
2019-04-16T04:08:04.524Z,99859.11
2019-04-16T04:10:37.115Z,99859.11
2019-04-16T04:13:11.077Z,99862.00
2019-04-16T04:15:42.646Z,99859.16
2019-04-16T04:18:13.476Z,99866.92
2019-04-16T04:20:49.663Z,99862.58
2019-04-16T04:23:19.114Z,99869.95
2019-04-16T04:25:51.559Z,99872.55
2019-04-16T04:28:22.192Z,99881.52
2019-04-16T04:30:57.735Z,99866.22
2019-04-16T04:33:42.642Z,99878.27
2019-04-16T04:36:12.863Z,99875.48
2019-04-16T04:38:45.658Z,99875.48
2019-04-16T04:41:46.329Z,99888.72
2019-04-16T04:44:28.474Z,99896.30
2019-04-16T04:47:00.266Z,99896.30
2019-04-16T04:49:42.762Z,99894.42
2019-04-16T04:52:15.231Z,99894.42
2019-04-16T04:55:09.922Z,99907.64
2019-04-16T04:57:42.790Z,99907.64
2019-04-16T05:04:02.355Z,99922.25
2019-04-16T05:06:50.574Z,99918.28
2019-04-16T05:09:35.639Z,99926.55
2019-04-16T05:12:08.080Z,99926.55
2019-04-16T05:14:58.681Z,99918.70
2019-04-16T05:20:24.145Z,99924.65
2019-04-16T05:22:58.002Z,99924.65
2019-04-16T05:25:34.469Z,99928.59
2019-04-16T05:28:17.313Z,99933.39
2019-04-16T05:31:07.180Z,99927.60
2019-04-16T05:34:00.618Z,99937.38
2019-04-16T05:36:34.454Z,99945.51
2019-04-16T05:39:28.283Z,99940.11
2019-04-16T05:42:02.003Z,99946.53
2019-04-16T05:44:51.803Z,99943.62
2019-04-16T05:47:41.618Z,99942.47
2019-04-16T05:50:31.504Z,99948.14
2019-04-16T05:53:02.105Z,99947.42
2019-04-16T05:56:10.813Z,99950.54
2019-04-16T05:59:02.713Z,99947.66
2019-04-16T06:02:10.987Z,99944.79
2019-04-16T06:05:00.806Z,99947.48
2019-04-16T06:07:50.593Z,99945.55
2019-04-16T06:10:40.486Z,99944.38
2019-04-16T06:13:49.166Z,99947.35
2019-04-16T06:16:38.416Z,99946.54
2019-04-16T06:19:47.521Z,99948.78
2019-04-16T06:23:00.656Z,99946.27
2019-04-16T06:25:53.296Z,99951.83
2019-04-16T06:29:01.983Z,99945.55
2019-04-16T06:32:11.842Z,99944.37
2019-04-16T06:35:07.668Z,99936.36
2019-04-16T06:38:16.299Z,99939.36
2019-04-16T06:41:25.001Z,99925.42
2019-04-16T06:44:19.457Z,99928.42
2019-04-16T06:47:28.404Z,99925.88
2019-04-16T06:50:40.593Z,99920.36
2019-04-16T06:53:39.006Z,99925.91
2019-04-16T06:56:28.403Z,99933.58
2019-04-16T06:59:37.374Z,99923.80
2019-04-16T07:03:01.322Z,99930.17
2019-04-16T07:05:42.855Z,99933.16
2019-04-16T07:08:51.915Z,99937.82
2019-04-16T07:11:57.784Z,99937.80
2019-04-16T07:14:25.863Z,99934.38
2019-04-16T07:17:08.675Z,99935.17
2019-04-16T07:19:58.484Z,99938.98
2019-04-16T07:22:52.741Z,99935.14
2019-04-16T07:25:32.310Z,99936.42
2019-04-16T07:28:33.532Z,99940.18
2019-04-16T07:31:42.291Z,99933.75
2019-04-16T07:34:45.173Z,99930.61
2019-04-16T07:37:53.872Z,99934.34
2019-04-16T07:41:02.566Z,99930.55
2019-04-16T07:44:11.415Z,99940.22
2019-04-16T07:47:20.792Z,99937.53
2019-04-16T07:50:32.235Z,99933.63
2019-04-16T07:53:31.429Z,99936.97
2019-04-16T07:56:24.022Z,99933.06
2019-04-16T07:59:13.812Z,99936.39
2019-04-16T08:02:03.631Z,99935.83
2019-04-16T08:04:53.625Z,99930.50
2019-04-16T08:07:43.490Z,99930.95
2019-04-16T08:10:33.347Z,99926.10
2019-04-16T08:16:07.639Z,99930.20
2019-04-16T08:18:57.452Z,99930.03
2019-04-16T08:21:47.348Z,99931.52
2019-04-16T08:27:23.880Z,99928.92
2019-04-16T08:30:15.024Z,99927.05
2019-04-16T08:33:04.810Z,99925.95
2019-04-16T08:35:54.613Z,99923.36
2019-04-16T08:38:26.116Z,99928.05
2019-04-16T08:41:20.309Z,99928.34
2019-04-16T08:44:02.930Z,99923.94
2019-04-16T08:46:43.537Z,99919.81
2019-04-16T08:49:33.379Z,99917.58
2019-04-16T08:52:23.189Z,99918.44
2019-04-16T08:55:13.017Z,99916.11
2019-04-16T08:58:05.869Z,99911.73
2019-04-16T09:03:30.963Z,99898.44
2019-04-16T09:06:20.753Z,99905.92
2019-04-16T09:09:29.456Z,99902.61
2019-04-16T09:12:19.290Z,99906.24
2019-04-16T09:18:32.069Z,99905.31
2019-04-16T09:21:02.557Z,99897.17
2019-04-16T09:24:11.338Z,99909.23
2019-04-16T09:30:00.398Z,99906.21
2019-04-16T09:33:09.116Z,99904.05
2019-04-16T09:36:17.863Z,99903.44
2019-04-16T09:39:25.472Z,99898.42
2019-04-16T09:42:15.319Z,99897.48
2019-04-16T09:45:05.812Z,99898.17
2019-04-16T09:47:55.692Z,99900.59
2019-04-16T09:50:47.886Z,99898.03
2019-04-16T09:53:34.025Z,99887.59
2019-04-16T09:56:30.781Z,99888.84
2019-04-16T09:59:39.495Z,99889.95
2019-04-16T10:05:30.152Z,99889.55
2019-04-16T10:08:12.612Z,99884.59
2019-04-16T10:10:58.090Z,99890.41
2019-04-16T10:13:38.546Z,99892.06
2019-04-16T10:19:13.112Z,99892.52
2019-04-16T10:22:02.874Z,99889.81
2019-04-16T10:25:11.582Z,99886.42
2019-04-16T10:28:08.362Z,99887.75
2019-04-16T10:30:58.335Z,99884.51
2019-04-16T10:33:48.131Z,99886.36
2019-04-16T10:36:18.585Z,99888.59
2019-04-16T10:39:27.342Z,99876.56
2019-04-16T10:42:25.587Z,99882.03
2019-04-16T10:45:34.190Z,99877.14
2019-04-16T10:48:23.483Z,99868.41
2019-04-16T10:51:32.172Z,99868.73
2019-04-16T10:54:38.135Z,99867.29
2019-04-16T10:57:30.292Z,99873.83
2019-04-16T11:03:41.149Z,99869.02
2019-04-16T11:06:49.791Z,99863.32
2019-04-16T11:09:39.898Z,99861.14
2019-04-16T11:12:29.846Z,99855.58
2019-04-16T11:15:22.117Z,99855.38
2019-04-16T11:18:11.910Z,99851.91
2019-04-16T11:21:01.711Z,99850.84
2019-04-16T11:23:51.599Z,99844.35
2019-04-16T11:26:22.067Z,99846.38
2019-04-16T11:29:12.153Z,99845.65
2019-04-16T11:31:54.810Z,99842.42
2019-04-16T11:34:44.568Z,99843.28
2019-04-16T11:37:36.211Z,99837.05
2019-04-16T11:40:17.462Z,99838.11
2019-04-16T11:43:07.328Z,99839.62
2019-04-16T11:45:57.091Z,99840.78
2019-04-16T11:48:50.068Z,99838.50
2019-04-16T11:51:38.492Z,99837.34
2019-04-16T11:54:28.443Z,99838.19
2019-04-16T11:57:18.280Z,99830.19
2019-04-16T12:02:58.586Z,99832.77
2019-04-16T12:06:07.289Z,99827.52
2019-04-16T12:09:16.117Z,99823.55
2019-04-16T12:12:13.068Z,99816.72
2019-04-16T12:15:21.734Z,99808.19
2019-04-16T12:18:11.061Z,99806.88
2019-04-16T12:21:19.730Z,99807.60
2019-04-16T12:24:28.419Z,99809.39
2019-04-16T12:27:37.065Z,99806.77
2019-04-16T12:30:45.762Z,99804.32
2019-04-16T12:33:54.496Z,99789.66
2019-04-16T12:36:55.696Z,99794.95
2019-04-16T12:40:04.424Z,99788.70
2019-04-16T12:43:06.211Z,99787.50
2019-04-16T12:46:14.921Z,99781.20
2019-04-16T12:49:23.561Z,99786.93
2019-04-16T12:52:32.209Z,99783.40
2019-04-16T12:55:32.481Z,99788.78
2019-04-16T12:58:34.435Z,99791.22
2019-04-16T13:01:43.204Z,99782.75
2019-04-16T13:04:51.904Z,99786.67
2019-04-16T13:07:41.205Z,99774.16
2019-04-16T13:10:41.161Z,99772.59
2019-04-16T13:13:49.811Z,99776.06
2019-04-16T13:16:58.479Z,99770.47
2019-04-16T13:20:07.152Z,99764.16
2019-04-16T13:22:58.290Z,99761.98
2019-04-16T13:25:57.359Z,99755.42
2019-04-16T13:28:47.229Z,99762.92
2019-04-16T13:31:38.963Z,99760.89
2019-04-16T13:34:20.429Z,99757.59
2019-04-16T13:37:10.249Z,99752.66
2019-04-16T13:42:48.170Z,99751.34
2019-04-16T13:48:42.386Z,99745.06
2019-04-16T13:51:24.175Z,99749.05
2019-04-16T13:54:34.406Z,99745.94
2019-04-16T13:57:14.288Z,99736.88
2019-04-16T14:00:23.413Z,99743.02
2019-04-16T14:03:15.685Z,99736.13
2019-04-16T14:06:09.323Z,99743.96
2019-04-16T14:08:48.373Z,99737.45
2019-04-16T14:11:38.301Z,99740.48
2019-04-16T14:14:28.095Z,99740.08
2019-04-16T14:20:56.185Z,99735.41
2019-04-16T14:23:48.753Z,99737.25
2019-04-16T14:26:38.604Z,99733.80
2019-04-16T14:29:28.384Z,99739.05
2019-04-16T14:32:18.234Z,99734.59
2019-04-16T14:35:07.623Z,99735.30
2019-04-16T14:37:57.844Z,99738.67
2019-04-16T14:40:35.088Z,99734.81
2019-04-16T14:46:28.405Z,99736.03
2019-04-16T14:49:09.502Z,99732.20
2019-04-16T14:52:02.242Z,99727.11
2019-04-16T14:55:09.723Z,99733.14
2019-04-16T14:58:18.443Z,99726.91
2019-04-16T15:01:07.696Z,99728.42
2019-04-16T15:04:16.402Z,99727.16
2019-04-16T15:06:58.150Z,99719.45
2019-04-16T15:10:07.060Z,99721.58
2019-04-16T15:13:15.708Z,99720.13
2019-04-16T15:16:24.401Z,99718.62
2019-04-16T15:19:33.075Z,99720.52
2019-04-16T15:22:41.878Z,99721.69
2019-04-16T15:25:44.150Z,99724.98
2019-04-16T15:28:52.869Z,99723.64
2019-04-16T15:32:05.432Z,99726.55
2019-04-16T15:34:46.112Z,99729.16
2019-04-16T15:37:44.912Z,99722.77
2019-04-16T15:40:40.133Z,99727.53
2019-04-16T15:43:23.332Z,99726.69
2019-04-16T15:46:35.109Z,99728.26
2019-04-16T15:49:29.011Z,99725.97
2019-04-16T15:52:36.758Z,99732.33
2019-04-16T15:55:33.131Z,99722.05
2019-04-16T15:58:41.805Z,99724.08
2019-04-16T16:01:50.505Z,99719.83
2019-04-16T16:04:59.237Z,99724.29
2019-04-16T16:08:08.030Z,99722.68
2019-04-16T16:11:00.380Z,99727.02
2019-04-16T16:13:50.274Z,99723.30
2019-04-16T16:16:42.006Z,99726.80
2019-04-16T16:19:23.264Z,99724.12
2019-04-16T16:22:13.128Z,99726.18
2019-04-16T16:25:05.873Z,99728.13
2019-04-16T16:27:43.905Z,99728.98
2019-04-16T16:30:24.035Z,99735.66
2019-04-16T16:33:13.870Z,99733.83
2019-04-16T16:35:57.071Z,99734.65
2019-04-16T16:38:27.242Z,99739.98
2019-04-16T16:41:17.035Z,99744.24
2019-04-16T16:44:07.225Z,99739.66
2019-04-16T16:47:15.956Z,99734.64
2019-04-16T16:49:48.090Z,99737.14
2019-04-16T16:52:56.769Z,99739.72
2019-04-16T16:56:05.678Z,99745.65
2019-04-16T16:59:14.301Z,99744.00
2019-04-16T17:02:23.011Z,99744.48
2019-04-16T17:08:01.700Z,99749.34
2019-04-16T17:10:51.516Z,99746.46
2019-04-16T17:13:41.344Z,99748.50
2019-04-16T17:16:31.153Z,99753.58
2019-04-16T17:19:20.983Z,99749.61
2019-04-16T17:22:10.758Z,99752.03
2019-04-16T17:25:00.633Z,99751.92
2019-04-16T17:27:51.827Z,99747.69
2019-04-16T17:30:33.389Z,99751.77
2019-04-16T17:33:23.181Z,99752.46
2019-04-16T17:36:13.110Z,99755.83
2019-04-16T17:38:43.656Z,99757.83
2019-04-16T17:41:37.542Z,99765.28
2019-04-16T17:44:46.300Z,99759.80
2019-04-16T17:47:57.223Z,99764.29
2019-04-16T17:50:51.749Z,99762.23
2019-04-16T17:53:41.329Z,99767.38
2019-04-16T17:56:51.947Z,99772.59
2019-04-16T18:02:35.243Z,99777.16
2019-04-16T18:05:44.063Z,99778.05
2019-04-16T18:08:52.735Z,99785.99
2019-04-16T18:11:44.789Z,99789.63
2019-04-16T18:14:40.763Z,99788.99
2019-04-16T18:17:49.462Z,99791.03
2019-04-16T18:20:56.822Z,99797.22
2019-04-16T18:23:45.613Z,99800.39
2019-04-16T18:26:55.160Z,99799.17
2019-04-16T18:30:06.202Z,99807.11
2019-04-16T18:33:05.577Z,99807.67
2019-04-16T18:36:01.034Z,99809.72
2019-04-16T18:41:47.168Z,99810.67
2019-04-16T18:44:56.322Z,99814.73
2019-04-16T18:47:42.905Z,99820.49
2019-04-16T18:50:32.723Z,99819.77
2019-04-16T18:53:22.574Z,99815.66
2019-04-16T18:56:12.513Z,99818.36
2019-04-16T18:58:42.934Z,99824.34
2019-04-16T19:04:16.528Z,99831.79
2019-04-16T19:06:47.165Z,99835.64
2019-04-16T19:09:37.061Z,99839.82
2019-04-16T19:12:26.963Z,99843.75
2019-04-16T19:15:16.809Z,99847.16
2019-04-16T19:18:18.950Z,99851.95
2019-04-16T19:20:51.825Z,99851.99
2019-04-16T19:23:33.615Z,99855.20
2019-04-16T19:26:23.455Z,99851.50
2019-04-16T19:29:14.549Z,99856.69
2019-04-16T19:31:54.959Z,99854.93
2019-04-16T19:34:34.502Z,99858.02
2019-04-16T19:37:24.305Z,99858.66
2019-04-16T19:40:15.598Z,99873.02
2019-04-16T19:43:02.605Z,99871.26
2019-04-16T19:45:35.392Z,99873.78
2019-04-16T19:48:35.321Z,99870.83
2019-04-16T19:51:19.608Z,99875.83
2019-04-16T19:54:00.249Z,99877.36
2019-04-16T19:56:51.392Z,99876.07
2019-04-16T19:59:33.313Z,99876.54
2019-04-16T20:02:23.143Z,99877.91
2019-04-16T20:04:54.147Z,99874.67
2019-04-16T20:07:37.202Z,99871.86
2019-04-16T20:10:27.013Z,99873.92
2019-04-16T20:13:16.861Z,99877.09
2019-04-16T20:15:47.358Z,99881.59
2019-04-16T20:18:50.164Z,99877.29
2019-04-16T20:21:20.147Z,99882.13
2019-04-16T20:23:56.281Z,99882.70
2019-04-16T20:26:46.092Z,99882.73
2019-04-16T20:29:35.999Z,99881.45
2019-04-16T20:35:11.704Z,99888.87
2019-04-16T20:38:01.546Z,99890.30
2019-04-16T20:40:51.364Z,99898.31
2019-04-16T20:43:41.200Z,99904.00
2019-04-16T20:46:31.040Z,99905.38
2019-04-16T20:49:20.902Z,99907.15
2019-04-16T20:52:10.811Z,99907.61
2019-04-16T20:57:27.725Z,99906.20
2019-04-16T21:03:04.781Z,99909.75
2019-04-16T21:05:57.805Z,99907.26
2019-04-16T21:08:49.470Z,99909.02
2019-04-16T21:11:41.017Z,99913.61
2019-04-16T21:17:13.798Z,99916.59
2019-04-16T21:20:04.041Z,99920.00
2019-04-16T21:22:57.628Z,99920.91
2019-04-16T21:25:37.495Z,99918.30
2019-04-16T21:28:31.947Z,99922.60
2019-04-16T21:31:21.557Z,99919.58
2019-04-16T21:34:30.234Z,99916.55
2019-04-16T21:40:25.985Z,99924.78
2019-04-16T21:43:27.852Z,99925.23
2019-04-16T21:45:59.115Z,99920.05
2019-04-16T21:48:50.661Z,99917.48
2019-04-16T21:52:01.608Z,99928.69
2019-04-16T21:54:51.409Z,99931.67
2019-04-16T21:57:42.876Z,99921.58
2019-04-16T22:00:51.614Z,99919.92
2019-04-16T22:03:42.916Z,99925.34
2019-04-16T22:09:25.403Z,99925.32
2019-04-16T22:12:16.188Z,99929.66
2019-04-16T22:14:58.643Z,99925.31
2019-04-16T22:17:48.435Z,99917.67
2019-04-16T22:20:38.260Z,99916.45
2019-04-16T22:23:28.619Z,99922.98
2019-04-16T22:26:18.498Z,99922.09
2019-04-16T22:29:08.270Z,99919.97
2019-04-16T22:32:11.169Z,99928.54
2019-04-16T22:34:40.448Z,99923.44
2019-04-16T22:37:30.277Z,99916.20
2019-04-16T22:40:38.902Z,99921.66
2019-04-16T22:43:47.603Z,99915.80
2019-04-16T22:46:40.452Z,99921.38
2019-04-16T22:49:40.948Z,99914.50
2019-04-16T22:53:02.714Z,99914.90
2019-04-16T22:55:56.387Z,99913.23
2019-04-16T22:58:48.928Z,99909.73
2019-04-16T23:07:44.563Z,99913.23
2019-04-16T23:10:17.832Z,99919.63
2019-04-16T23:13:00.366Z,99920.53
2019-04-16T23:15:32.650Z,99917.08
2019-04-16T23:18:22.458Z,99924.73
2019-04-16T23:21:12.224Z,99921.81
2019-04-16T23:24:02.050Z,99919.71
2019-04-16T23:26:33.292Z,99918.42
2019-04-16T23:29:12.543Z,99922.20
2019-04-16T23:31:56.028Z,99926.95
2019-04-16T23:34:37.996Z,99921.88
2019-04-16T23:37:14.989Z,99922.64
2019-04-16T23:40:07.472Z,99927.30
2019-04-16T23:43:15.377Z,99925.63
2019-04-16T23:46:24.094Z,99923.97
2019-04-16T23:49:32.792Z,99932.18
2019-04-16T23:52:26.742Z,99927.91
2019-04-16T23:55:35.422Z,99927.44
2019-04-16T23:58:44.088Z,99931.73
